Time;durP1;ratioP1;P1;durP2;ratioP2;P2;SDS_P1;SDS_P2;PMS_P1;PMS_P2;Temp;Humidity;BMP_temperature;BMP_pressure;BME280_temperature;BME280_humidity;BME280_pressure;Samples;Min_cycle;Max_cycle;Signal;HPM_P1;HPM_P2
2023/12/14 06:00:41;;;;;;;4.00;3.57;;;;;;;;;;1741304;28;20262;-76
2023/12/14 06:01:32;;;;;;;4.22;3.75;;;;;;;;;;1741518;28;20199;-77
2023/12/14 06:02:24;;;;;;;4.00;3.70;;;;;;;;;;1741652;28;20244;-77
2023/12/14 06:03:16;;;;;;;4.03;3.72;;;;;;;;;;1741448;28;20207;-77
2023/12/14 06:04:07;;;;;;;4.57;3.65;;;;;;;;;;1741227;28;20234;-77
2023/12/14 06:04:59;;;;;;;3.50;3.20;;;;;;;;;;1741434;28;20207;-75
2023/12/14 06:05:50;;;;;;;4.20;3.67;;;;;;;;;;1748328;28;20220;-77
2023/12/14 06:06:41;;;;;;;3.88;3.53;;;;;;;;;;1743567;28;20210;-77
2023/12/14 06:07:33;;;;;;;4.03;3.70;;;;;;;;;;1740862;28;20191;-77
2023/12/14 06:08:24;;;;;;;4.38;3.75;;;;;;;;;;1741577;28;20214;-77
2023/12/14 06:09:15;;;;;;;4.35;3.95;;;;;;;;;;1741351;28;20231;-76
2023/12/14 06:10:08;;;;;;;4.90;4.50;;;;;;;;;;1741633;28;20195;-76
2023/12/14 06:10:59;;;;;;;4.50;4.10;;;;;;;;;;1741407;28;20302;-76
2023/12/14 06:11:52;;;;;;;4.53;4.07;;;;;;;;;;1741570;28;20227;-76
2023/12/14 06:12:43;;;;;;;5.20;4.80;;;;;;;;;;1741631;28;20199;-77
2023/12/14 06:13:34;;;;;;;4.97;4.50;;;;;;;;;;1742268;28;20230;-77
2023/12/14 06:14:26;;;;;;;5.13;4.47;;;;;;;;;;1741611;28;20203;-77
2023/12/14 06:15:17;;;;;;;5.47;4.97;;;;;;;;;;1741623;28;20211;-77
2023/12/14 06:16:12;;;;;;;3.97;3.67;;;;;;;;;;1741369;28;20207;-77
2023/12/14 06:17:03;;;;;;;4.88;4.47;;;;;;;;;;1741515;28;20210;-77
2023/12/14 06:17:54;;;;;;;4.20;3.90;;;;;;;;;;1741521;28;20625;-77
2023/12/14 06:18:46;;;;;;;5.18;4.78;;;;;;;;;;1741438;28;20682;-77
2023/12/14 06:19:38;;;;;;;4.90;4.50;;;;;;;;;;1742502;28;20199;-76
2023/12/14 06:20:30;;;;;;;5.70;5.20;;;;;;;;;;1747588;28;20251;-77
2023/12/14 06:21:21;;;;;;;5.35;4.85;;;;;;;;;;1741526;28;20651;-77
2023/12/14 06:22:13;;;;;;;5.80;5.30;;;;;;;;;;1741438;28;20203;-76
2023/12/14 06:23:04;;;;;;;5.45;4.95;;;;;;;;;;1741273;28;20191;-76
2023/12/14 06:23:55;;;;;;;5.22;4.72;;;;;;;;;;1741405;28;20199;-76
2023/12/14 06:24:47;;;;;;;5.55;5.05;;;;;;;;;;1740765;28;20199;-76
2023/12/14 06:25:38;;;;;;;5.10;4.70;;;;;;;;;;1741189;28;20218;-76
2023/12/14 06:26:29;;;;;;;4.72;4.35;;;;;;;;;;1741282;28;20215;-75
2023/12/14 06:27:26;;;;;;;5.10;4.60;;;;;;;;;;1741000;28;20669;-77
2023/12/14 06:28:17;;;;;;;5.53;5.03;;;;;;;;;;1741334;28;20207;-76
2023/12/14 06:29:08;;;;;;;4.55;4.15;;;;;;;;;;1741096;28;20284;-75
2023/12/14 06:30:00;;;;;;;5.40;5.00;;;;;;;;;;1741313;28;20206;-76
2023/12/14 06:30:51;;;;;;;4.88;4.47;;;;;;;;;;1741876;28;20202;-75
2023/12/14 06:31:47;;;;;;;4.40;4.00;;;;;;;;;;1741779;28;20199;-76
2023/12/14 06:32:38;;;;;;;5.00;4.57;;;;;;;;;;1741279;28;20203;-76
2023/12/14 06:33:29;;;;;;;5.97;5.03;;;;;;;;;;1741269;28;20202;-76
2023/12/14 06:34:21;;;;;;;6.32;5.13;;;;;;;;;;1739241;28;20195;-75
2023/12/14 06:35:12;;;;;;;5.07;4.60;;;;;;;;;;1739860;28;20217;-76
2023/12/14 06:36:04;;;;;;;6.82;4.90;;;;;;;;;;1743313;28;20210;-77
2023/12/14 06:36:58;;;;;;;5.75;5.25;;;;;;;;;;1745787;28;20214;-77
2023/12/14 06:37:49;;;;;;;5.30;4.80;;;;;;;;;;1742145;28;20203;-78
2023/12/14 06:38:40;;;;;;;6.43;5.65;;;;;;;;;;1746696;28;20233;-78
2023/12/14 06:39:33;;;;;;;4.85;4.45;;;;;;;;;;1741053;28;20251;-77
2023/12/14 06:40:24;;;;;;;4.70;4.30;;;;;;;;;;1735536;28;20257;-76
2023/12/14 06:41:22;;;;;;;5.70;5.18;;;;;;;;;;1740545;28;20634;-76
2023/12/14 06:42:14;;;;;;;5.13;4.72;;;;;;;;;;1741827;28;20187;-77
2023/12/14 06:43:05;;;;;;;5.43;4.97;;;;;;;;;;1741771;28;20203;-77
2023/12/14 06:43:57;;;;;;;7.35;4.80;;;;;;;;;;1741667;28;20191;-77
2023/12/14 06:44:48;;;;;;;7.30;4.78;;;;;;;;;;1741694;28;20210;-77
2023/12/14 06:45:39;;;;;;;6.00;4.95;;;;;;;;;;1742031;28;20199;-78
2023/12/14 06:46:31;;;;;;;5.40;4.90;;;;;;;;;;1741709;28;20203;-76
2023/12/14 06:47:24;;;;;;;5.03;4.63;;;;;;;;;;1742964;28;20214;-78
2023/12/14 06:48:15;;;;;;;5.32;4.82;;;;;;;;;;1742567;28;20207;-77
2023/12/14 06:49:07;;;;;;;5.78;5.25;;;;;;;;;;1744753;28;20589;-76
2023/12/14 06:49:58;;;;;;;6.15;5.60;;;;;;;;;;1746736;28;20206;-76
2023/12/14 06:50:50;;;;;;;7.55;5.43;;;;;;;;;;1740719;28;20260;-77
2023/12/14 06:51:41;;;;;;;5.95;5.45;;;;;;;;;;1740880;28;20681;-77
2023/12/14 06:52:32;;;;;;;5.25;4.75;;;;;;;;;;1740969;28;20207;-78
2023/12/14 06:53:25;;;;;;;4.70;4.30;;;;;;;;;;1741635;28;20206;-78
2023/12/14 06:54:16;;;;;;;5.20;4.70;;;;;;;;;;1741578;28;20793;-77
2023/12/14 06:55:09;;;;;;;5.25;4.68;;;;;;;;;;1741253;28;20202;-76
2023/12/14 06:56:01;;;;;;;5.78;5.18;;;;;;;;;;1740434;28;20209;-76
2023/12/14 06:56:52;;;;;;;5.60;5.10;;;;;;;;;;1739612;28;20199;-76
2023/12/14 06:57:43;;;;;;;5.78;4.78;;;;;;;;;;1740609;28;20210;-76
2023/12/14 06:58:35;;;;;;;6.40;5.85;;;;;;;;;;1741002;28;20203;-76
2023/12/14 06:59:26;;;;;;;8.02;6.55;;;;;;;;;;1740757;28;20199;-76
2023/12/14 07:00:19;;;;;;;6.63;6.03;;;;;;;;;;1740825;28;20729;-77
2023/12/14 07:01:13;;;;;;;6.72;6.13;;;;;;;;;;1741169;28;20210;-77
2023/12/14 07:02:05;;;;;;;6.78;6.13;;;;;;;;;;1740879;28;20563;-76
2023/12/14 07:02:57;;;;;;;7.30;5.38;;;;;;;;;;1740463;28;20215;-77
2023/12/14 07:03:49;;;;;;;5.47;4.72;;;;;;;;;;1740816;28;20221;-76
2023/12/14 07:04:41;;;;;;;6.05;5.45;;;;;;;;;;1740719;28;20211;-77
2023/12/14 07:05:32;;;;;;;5.95;4.30;;;;;;;;;;1738801;28;20207;-76
2023/12/14 07:06:28;;;;;;;4.80;4.40;;;;;;;;;;1733310;28;20242;-75
2023/12/14 07:07:19;;;;;;;5.80;4.30;;;;;;;;;;1736259;28;20287;-77
2023/12/14 07:08:12;;;;;;;3.70;3.30;;;;;;;;;;1745742;28;20198;-76
2023/12/14 07:09:05;;;;;;;4.20;3.80;;;;;;;;;;1736924;28;20691;-76
2023/12/14 07:09:56;;;;;;;4.18;3.80;;;;;;;;;;1740616;28;20203;-76
2023/12/14 07:10:48;;;;;;;4.85;3.95;;;;;;;;;;1737675;28;20207;-76
2023/12/14 07:11:39;;;;;;;3.88;3.58;;;;;;;;;;1739588;28;20207;-76
2023/12/14 07:12:34;;;;;;;4.00;3.70;;;;;;;;;;1735611;28;20192;-76
2023/12/14 07:13:26;;;;;;;7.35;4.20;;;;;;;;;;1740567;28;20600;-76
2023/12/14 07:14:18;;;;;;;3.95;3.65;;;;;;;;;;1740497;28;20285;-76
2023/12/14 07:15:09;;;;;;;4.38;3.30;;;;;;;;;;1740436;28;20219;-76
2023/12/14 07:16:00;;;;;;;4.32;3.92;;;;;;;;;;1740575;28;20591;-76
2023/12/14 07:16:52;;;;;;;3.75;3.45;;;;;;;;;;1738798;28;20278;-76
2023/12/14 07:17:45;;;;;;;3.55;3.25;;;;;;;;;;1739252;28;20217;-76
2023/12/14 07:18:40;;;;;;;3.67;3.38;;;;;;;;;;1735159;28;20250;-76
2023/12/14 07:19:32;;;;;;;3.78;3.47;;;;;;;;;;1740752;28;20207;-77
2023/12/14 07:20:25;;;;;;;3.72;3.42;;;;;;;;;;1740681;28;20233;-76
2023/12/14 07:21:17;;;;;;;3.60;3.30;;;;;;;;;;1740718;28;20195;-76
2023/12/14 07:22:09;;;;;;;3.55;3.05;;;;;;;;;;1746898;28;20195;-76
2023/12/14 07:23:02;;;;;;;4.97;3.38;;;;;;;;;;1741294;28;20199;-76
2023/12/14 07:23:54;;;;;;;3.50;3.20;;;;;;;;;;1740965;28;20240;-77
2023/12/14 07:24:45;;;;;;;3.28;2.97;;;;;;;;;;1740756;28;20211;-77
2023/12/14 07:25:36;;;;;;;3.80;3.50;;;;;;;;;;1740815;28;20670;-77
2023/12/14 07:26:29;;;;;;;3.95;3.65;;;;;;;;;;1739873;28;20567;-77
2023/12/14 07:27:22;;;;;;;3.35;3.08;;;;;;;;;;1739758;28;20203;-76
2023/12/14 07:28:14;;;;;;;3.50;3.20;;;;;;;;;;1736043;28;20657;-77
2023/12/14 07:29:06;;;;;;;3.30;3.00;;;;;;;;;;1740969;28;20219;-78
2023/12/14 07:29:57;;;;;;;3.38;3.10;;;;;;;;;;1740609;28;20223;-77
2023/12/14 07:30:49;;;;;;;3.70;3.40;;;;;;;;;;1740764;28;20237;-76
2023/12/14 07:31:41;;;;;;;3.90;3.60;;;;;;;;;;1740699;28;20557;-77
2023/12/14 07:32:32;;;;;;;3.40;3.10;;;;;;;;;;1740308;28;20215;-76
2023/12/14 07:33:23;;;;;;;3.35;3.05;;;;;;;;;;1740751;28;20205;-77
2023/12/14 07:34:18;;;;;;;3.83;3.00;;;;;;;;;;1740523;28;20215;-76
2023/12/14 07:35:10;;;;;;;3.15;2.85;;;;;;;;;;1740753;28;20207;-76
2023/12/14 07:36:01;;;;;;;3.38;3.08;;;;;;;;;;1741995;28;20265;-76
2023/12/14 07:36:53;;;;;;;3.22;2.92;;;;;;;;;;1740341;28;20184;-76
2023/12/14 07:37:44;;;;;;;3.20;2.95;;;;;;;;;;1743694;28;20206;-76
2023/12/14 07:38:36;;;;;;;3.50;2.70;;;;;;;;;;1735984;28;20203;-77
2023/12/14 07:39:27;;;;;;;3.83;3.22;;;;;;;;;;1735218;28;20226;-76
2023/12/14 07:40:19;;;;;;;3.50;3.28;;;;;;;;;;1743917;28;20567;-79
2023/12/14 07:41:10;;;;;;;3.38;3.00;;;;;;;;;;1748104;28;20450;-79
2023/12/14 07:42:02;;;;;;;3.15;2.95;;;;;;;;;;1747305;28;20220;-78
2023/12/14 07:42:54;;;;;;;3.20;2.90;;;;;;;;;;1746811;28;20206;-79
2023/12/14 07:43:45;;;;;;;3.10;2.90;;;;;;;;;;1744582;28;20199;-78
2023/12/14 07:44:37;;;;;;;3.08;2.88;;;;;;;;;;1747528;28;20639;-79
2023/12/14 07:45:28;;;;;;;3.15;2.92;;;;;;;;;;1747724;28;20245;-78
2023/12/14 07:46:19;;;;;;;4.07;3.38;;;;;;;;;;1745482;28;20238;-79
2023/12/14 07:47:11;;;;;;;3.78;3.47;;;;;;;;;;1744451;28;20277;-78
2023/12/14 07:48:03;;;;;;;4.55;3.90;;;;;;;;;;1742544;28;20203;-78
2023/12/14 07:48:54;;;;;;;4.50;4.10;;;;;;;;;;1743701;28;20202;-78
2023/12/14 07:49:48;;;;;;;4.78;4.38;;;;;;;;;;1748697;28;20695;-78
2023/12/14 07:50:39;;;;;;;4.90;4.47;;;;;;;;;;1746485;28;20217;-77
2023/12/14 07:51:30;;;;;;;4.70;4.30;;;;;;;;;;1741750;28;20204;-78
2023/12/14 07:52:22;;;;;;;4.82;4.43;;;;;;;;;;1738721;28;20204;-79
2023/12/14 07:53:13;;;;;;;5.07;4.72;;;;;;;;;;1742131;28;20214;-79
2023/12/14 07:54:04;;;;;;;4.40;4.10;;;;;;;;;;1744709;28;20233;-79
2023/12/14 07:54:56;;;;;;;4.72;4.43;;;;;;;;;;1744688;28;20199;-79
2023/12/14 07:55:47;;;;;;;4.10;3.70;;;;;;;;;;1745175;28;20206;-78
2023/12/14 07:56:40;;;;;;;4.60;4.20;;;;;;;;;;1745136;28;20203;-78
2023/12/14 07:57:31;;;;;;;3.70;3.40;;;;;;;;;;1745001;28;20206;-79
2023/12/14 07:58:22;;;;;;;3.50;3.30;;;;;;;;;;1745253;28;20288;-79
2023/12/14 07:59:14;;;;;;;3.50;3.22;;;;;;;;;;1744132;28;20219;-77
2023/12/14 08:00:08;;;;;;;4.10;3.70;;;;;;;;;;1745118;28;20199;-78
2023/12/14 08:00:59;;;;;;;3.38;3.13;;;;;;;;;;1744741;28;20271;-77
2023/12/14 08:01:51;;;;;;;3.28;3.03;;;;;;;;;;1745091;28;20195;-78
2023/12/14 08:02:42;;;;;;;3.90;3.60;;;;;;;;;;1744880;28;20210;-78
2023/12/14 08:03:33;;;;;;;6.72;6.03;;;;;;;;;;1745396;28;20202;-77
2023/12/14 08:04:25;;;;;;;7.68;6.88;;;;;;;;;;1743846;28;20209;-78
2023/12/14 08:05:18;;;;;;;8.18;7.45;;;;;;;;;;1744566;28;20203;-78
2023/12/14 08:06:09;;;;;;;7.55;6.90;;;;;;;;;;1744786;28;20286;-77
2023/12/14 08:07:01;;;;;;;8.60;7.70;;;;;;;;;;1743833;28;20199;-78
2023/12/14 08:07:52;;;;;;;8.30;7.50;;;;;;;;;;1743488;28;20199;-77
2023/12/14 08:08:43;;;;;;;9.57;7.60;;;;;;;;;;1738824;28;20282;-77
2023/12/14 08:09:35;;;;;;;7.82;7.00;;;;;;;;;;1737519;28;20204;-77
2023/12/14 08:10:27;;;;;;;7.85;7.05;;;;;;;;;;1742661;28;20698;-81
2023/12/14 08:11:18;;;;;;;6.68;5.82;;;;;;;;;;1745207;28;20199;-80
2023/12/14 08:12:10;;;;;;;7.10;6.40;;;;;;;;;;1743606;28;20224;-80
2023/12/14 08:13:01;;;;;;;6.88;6.28;;;;;;;;;;1743639;28;20195;-80
2023/12/14 08:13:52;;;;;;;6.03;5.28;;;;;;;;;;1743631;28;20826;-80
2023/12/14 08:14:44;;;;;;;6.00;5.38;;;;;;;;;;1744424;28;20199;-79
2023/12/14 08:15:35;;;;;;;4.55;4.15;;;;;;;;;;1743849;28;20199;-79
2023/12/14 08:16:26;;;;;;;4.55;4.15;;;;;;;;;;1744591;28;20211;-81
2023/12/14 08:17:19;;;;;;;4.40;4.00;;;;;;;;;;1743295;28;20289;-77
2023/12/14 08:18:10;;;;;;;7.72;4.20;;;;;;;;;;1741466;28;20214;-77
2023/12/14 08:19:02;;;;;;;4.03;3.72;;;;;;;;;;1742532;28;20211;-77
2023/12/14 08:19:53;;;;;;;3.88;3.58;;;;;;;;;;1743183;28;20199;-79
2023/12/14 08:20:46;;;;;;;3.92;3.63;;;;;;;;;;1743445;28;20225;-77
2023/12/14 08:21:37;;;;;;;4.20;3.80;;;;;;;;;;1743376;28;20207;-77
2023/12/14 08:22:28;;;;;;;5.03;4.00;;;;;;;;;;1743536;28;20195;-77
2023/12/14 08:23:20;;;;;;;4.78;4.38;;;;;;;;;;1740387;28;20753;-77
2023/12/14 08:24:12;;;;;;;5.00;4.40;;;;;;;;;;1743480;28;20191;-78
2023/12/14 08:25:04;;;;;;;5.00;4.60;;;;;;;;;;1739824;28;20191;-78
2023/12/14 08:25:57;;;;;;;4.70;4.30;;;;;;;;;;1740673;28;20734;-77
2023/12/14 08:26:48;;;;;;;5.15;4.70;;;;;;;;;;1737893;28;20204;-78
2023/12/14 08:27:40;;;;;;;4.30;3.92;;;;;;;;;;1741142;28;20203;-77
2023/12/14 08:28:31;;;;;;;4.70;4.30;;;;;;;;;;1742159;28;20240;-77
2023/12/14 08:29:23;;;;;;;4.53;4.13;;;;;;;;;;1742087;28;20227;-78
2023/12/14 08:30:15;;;;;;;4.15;3.85;;;;;;;;;;1741971;28;20712;-77
2023/12/14 08:31:08;;;;;;;4.60;4.22;;;;;;;;;;1742194;28;20572;-80
2023/12/14 08:31:59;;;;;;;4.90;4.45;;;;;;;;;;1736578;28;20210;-80
2023/12/14 08:32:51;;;;;;;4.82;4.43;;;;;;;;;;1736951;28;20204;-80
2023/12/14 08:33:42;;;;;;;4.18;3.88;;;;;;;;;;1744091;28;20660;-80
2023/12/14 08:34:34;;;;;;;5.78;4.68;;;;;;;;;;1741501;28;20205;-79
2023/12/14 08:35:26;;;;;;;4.80;4.40;;;;;;;;;;1742427;28;20671;-79
2023/12/14 08:36:18;;;;;;;5.10;4.60;;;;;;;;;;1742957;28;20195;-80
2023/12/14 08:37:10;;;;;;;4.60;4.20;;;;;;;;;;1742248;28;20202;-80
2023/12/14 08:38:01;;;;;;;5.00;4.50;;;;;;;;;;1743012;28;20306;-79
2023/12/14 08:38:53;;;;;;;4.82;4.43;;;;;;;;;;1743337;28;20206;-79
2023/12/14 08:39:45;;;;;;;5.18;4.72;;;;;;;;;;1743082;28;20199;-79
2023/12/14 08:40:36;;;;;;;4.53;4.10;;;;;;;;;;1742252;28;20854;-79
2023/12/14 08:41:27;;;;;;;4.38;4.07;;;;;;;;;;1742615;28;20606;-79
2023/12/14 08:42:19;;;;;;;10.07;4.53;;;;;;;;;;1742315;28;20211;-79
2023/12/14 08:43:14;;;;;;;5.03;4.63;;;;;;;;;;1743769;28;20203;-81
2023/12/14 08:44:06;;;;;;;5.82;5.22;;;;;;;;;;1742562;28;20196;-79
2023/12/14 08:44:57;;;;;;;5.15;4.65;;;;;;;;;;1742828;28;20218;-79
2023/12/14 08:45:49;;;;;;;4.82;4.50;;;;;;;;;;1743048;28;20187;-78
2023/12/14 08:46:41;;;;;;;4.70;4.32;;;;;;;;;;1742694;28;20207;-79
2023/12/14 08:47:32;;;;;;;5.97;4.68;;;;;;;;;;1741492;28;20207;-79
2023/12/14 08:48:24;;;;;;;4.95;4.55;;;;;;;;;;1742359;28;20301;-80
2023/12/14 08:49:16;;;;;;;4.28;3.95;;;;;;;;;;1743003;28;20315;-79
2023/12/14 08:50:08;;;;;;;4.85;4.45;;;;;;;;;;1742977;28;20219;-80
2023/12/14 08:51:00;;;;;;;5.32;4.70;;;;;;;;;;1743117;28;20203;-80
2023/12/14 08:51:53;;;;;;;4.93;4.43;;;;;;;;;;1742794;28;20597;-79
2023/12/14 08:52:44;;;;;;;4.68;4.28;;;;;;;;;;1743087;28;20203;-79
2023/12/14 08:53:39;;;;;;;4.97;4.57;;;;;;;;;;1742684;28;20260;-79
2023/12/14 08:54:30;;;;;;;4.03;3.72;;;;;;;;;;1742978;28;20639;-80
2023/12/14 08:55:21;;;;;;;4.07;3.78;;;;;;;;;;1743102;28;20302;-79
2023/12/14 08:56:13;;;;;;;4.50;4.10;;;;;;;;;;1742712;28;20211;-79
2023/12/14 08:57:05;;;;;;;4.93;4.43;;;;;;;;;;1742394;28;20222;-79
2023/12/14 08:57:57;;;;;;;4.93;4.53;;;;;;;;;;1742650;28;20260;-79
2023/12/14 08:58:48;;;;;;;4.47;4.10;;;;;;;;;;1743116;28;20230;-79
2023/12/14 08:59:39;;;;;;;4.65;4.10;;;;;;;;;;1746309;28;20769;-77
2023/12/14 09:00:31;;;;;;;4.55;4.15;;;;;;;;;;1742068;28;20203;-78
2023/12/14 09:01:23;;;;;;;6.60;4.60;;;;;;;;;;1742312;28;20207;-80
2023/12/14 09:02:14;;;;;;;4.50;4.15;;;;;;;;;;1742865;28;20202;-79
2023/12/14 09:03:06;;;;;;;5.20;4.75;;;;;;;;;;1742611;28;20199;-79
2023/12/14 09:03:57;;;;;;;4.55;4.15;;;;;;;;;;1742812;28;20564;-80
2023/12/14 09:04:48;;;;;;;5.30;4.32;;;;;;;;;;1743056;28;20636;-79
2023/12/14 09:05:42;;;;;;;5.15;4.63;;;;;;;;;;1743269;28;20203;-79
2023/12/14 09:06:34;;;;;;;4.20;3.90;;;;;;;;;;1742972;28;20204;-80
2023/12/14 09:07:26;;;;;;;4.88;4.47;;;;;;;;;;1742172;28;20648;-79
2023/12/14 09:08:18;;;;;;;4.80;4.40;;;;;;;;;;1743229;28;20215;-80
2023/12/14 09:09:09;;;;;;;4.10;3.78;;;;;;;;;;1743281;28;20227;-80
2023/12/14 09:10:00;;;;;;;5.45;5.00;;;;;;;;;;1742764;28;20221;-79
2023/12/14 09:10:52;;;;;;;5.20;4.80;;;;;;;;;;1742487;28;20200;-78
2023/12/14 09:11:43;;;;;;;5.32;4.28;;;;;;;;;;1735711;28;20211;-79
2023/12/14 09:12:35;;;;;;;5.72;5.15;;;;;;;;;;1735423;28;20617;-77
2023/12/14 09:13:27;;;;;;;4.82;4.50;;;;;;;;;;1745796;28;20678;-77
2023/12/14 09:14:18;;;;;;;6.45;5.90;;;;;;;;;;1749544;28;20577;-77
2023/12/14 09:15:10;;;;;;;5.25;4.85;;;;;;;;;;1745481;28;20209;-77
2023/12/14 09:16:02;;;;;;;5.70;4.78;;;;;;;;;;1742221;28;20245;-76
2023/12/14 09:16:53;;;;;;;5.72;5.25;;;;;;;;;;1742433;28;20599;-77
2023/12/14 09:17:44;;;;;;;5.47;4.97;;;;;;;;;;1742318;28;20780;-77
2023/12/14 09:18:36;;;;;;;4.60;4.20;;;;;;;;;;1742170;28;20199;-76
2023/12/14 09:19:29;;;;;;;5.35;4.93;;;;;;;;;;1742655;28;20219;-77
2023/12/14 09:20:21;;;;;;;5.00;4.60;;;;;;;;;;1742240;28;20275;-77
2023/12/14 09:21:14;;;;;;;4.55;4.15;;;;;;;;;;1742383;28;20207;-77
2023/12/14 09:22:06;;;;;;;4.75;4.35;;;;;;;;;;1742400;28;20261;-78
2023/12/14 09:22:59;;;;;;;4.80;4.30;;;;;;;;;;1742512;28;20210;-78
2023/12/14 09:23:53;;;;;;;5.32;4.80;;;;;;;;;;1742483;28;20214;-78
2023/12/14 09:24:45;;;;;;;5.13;4.53;;;;;;;;;;1742377;28;20257;-78
2023/12/14 09:25:36;;;;;;;5.07;4.57;;;;;;;;;;1742609;28;20196;-78
2023/12/14 09:26:28;;;;;;;4.82;4.30;;;;;;;;;;1742331;28;20198;-78
2023/12/14 09:27:19;;;;;;;4.40;4.10;;;;;;;;;;1745565;28;20194;-77
2023/12/14 09:28:10;;;;;;;7.47;4.97;;;;;;;;;;1747981;28;20199;-77
2023/12/14 09:29:02;;;;;;;5.00;4.50;;;;;;;;;;1742299;28;20215;-77
2023/12/14 09:29:53;;;;;;;5.05;4.60;;;;;;;;;;1742155;28;20207;-78
2023/12/14 09:30:44;;;;;;;4.30;4.00;;;;;;;;;;1741987;28;20261;-77
2023/12/14 09:31:37;;;;;;;4.68;4.20;;;;;;;;;;1742004;28;20203;-78
2023/12/14 09:32:28;;;;;;;5.40;4.90;;;;;;;;;;1742216;28;20207;-78
2023/12/14 09:33:19;;;;;;;5.55;5.05;;;;;;;;;;1742451;28;20191;-78
2023/12/14 09:34:11;;;;;;;5.50;5.07;;;;;;;;;;1742473;28;20241;-77
2023/12/14 09:35:02;;;;;;;5.60;5.15;;;;;;;;;;1743063;28;20203;-77
2023/12/14 09:35:54;;;;;;;6.65;5.35;;;;;;;;;;1747143;28;20195;-78
2023/12/14 09:36:46;;;;;;;5.90;5.40;;;;;;;;;;1742856;28;20222;-78
2023/12/14 09:37:38;;;;;;;5.47;4.97;;;;;;;;;;1741726;28;20203;-78
2023/12/14 09:38:30;;;;;;;5.20;4.70;;;;;;;;;;1742909;28;20260;-77
2023/12/14 09:39:23;;;;;;;5.55;5.05;;;;;;;;;;1743069;28;20226;-77
2023/12/14 09:40:16;;;;;;;6.80;5.55;;;;;;;;;;1742612;28;20206;-78
2023/12/14 09:41:07;;;;;;;6.70;5.47;;;;;;;;;;1742963;28;20191;-78
2023/12/14 09:42:04;;;;;;;5.68;5.18;;;;;;;;;;1742314;28;20203;-77
2023/12/14 09:42:56;;;;;;;7.30;5.55;;;;;;;;;;1742841;28;20576;-77
2023/12/14 09:43:48;;;;;;;5.88;5.38;;;;;;;;;;1742486;28;20203;-77
2023/12/14 09:44:39;;;;;;;6.22;5.63;;;;;;;;;;1743057;28;20207;-78
2023/12/14 09:45:32;;;;;;;5.75;5.28;;;;;;;;;;1742824;28;20199;-78
2023/12/14 09:46:24;;;;;;;6.13;5.55;;;;;;;;;;1742856;28;20207;-76
2023/12/14 09:47:16;;;;;;;5.90;5.28;;;;;;;;;;1742449;28;20206;-77
2023/12/14 09:48:07;;;;;;;6.72;6.13;;;;;;;;;;1742947;28;20207;-78
2023/12/14 09:48:58;;;;;;;6.32;5.80;;;;;;;;;;1742736;28;20302;-77
2023/12/14 09:49:52;;;;;;;9.20;6.07;;;;;;;;;;1735719;28;20688;-77
2023/12/14 09:50:44;;;;;;;6.13;5.63;;;;;;;;;;1741305;28;20215;-78
2023/12/14 09:51:36;;;;;;;6.88;6.25;;;;;;;;;;1742583;28;20215;-76
2023/12/14 09:52:28;;;;;;;6.43;5.70;;;;;;;;;;1743049;28;20199;-78
2023/12/14 09:53:19;;;;;;;5.72;5.22;;;;;;;;;;1742772;28;20218;-78
2023/12/14 09:54:12;;;;;;;5.95;5.45;;;;;;;;;;1743009;28;20222;-77
2023/12/14 09:55:04;;;;;;;6.65;6.03;;;;;;;;;;1742813;28;20679;-77
2023/12/14 09:55:55;;;;;;;6.72;6.13;;;;;;;;;;1742273;28;20199;-77
2023/12/14 09:56:47;;;;;;;5.97;5.38;;;;;;;;;;1742357;28;20195;-77
2023/12/14 09:57:39;;;;;;;7.05;6.45;;;;;;;;;;1742123;28;20205;-77
2023/12/14 09:58:32;;;;;;;6.20;5.55;;;;;;;;;;1742865;28;20663;-77
2023/12/14 09:59:24;;;;;;;8.77;6.47;;;;;;;;;;1742153;28;20249;-77
2023/12/14 10:00:32;;;;;;;7.10;5.95;;;;;;;;;;1742287;28;20203;-77
2023/12/14 10:01:25;;;;;;;6.40;5.70;;;;;;;;;;1736103;28;20200;-77
2023/12/14 10:02:16;;;;;;;6.97;6.38;;;;;;;;;;1735429;28;20215;-78
2023/12/14 10:03:19;;;;;;;8.18;6.65;;;;;;;;;;1742292;28;20207;-78
2023/12/14 10:04:11;;;;;;;7.10;6.50;;;;;;;;;;1742454;28;20214;-78
2023/12/14 10:05:02;;;;;;;7.00;6.40;;;;;;;;;;1743092;28;20199;-77
2023/12/14 10:05:54;;;;;;;7.80;7.10;;;;;;;;;;1742208;28;20191;-77
2023/12/14 10:06:47;;;;;;;6.88;6.28;;;;;;;;;;1742340;28;20210;-77
2023/12/14 10:07:40;;;;;;;8.48;6.85;;;;;;;;;;1741526;28;20199;-78
2023/12/14 10:08:31;;;;;;;7.80;7.10;;;;;;;;;;1742183;28;20683;-78
2023/12/14 10:09:25;;;;;;;7.95;6.28;;;;;;;;;;1748546;28;20214;-78
2023/12/14 10:10:16;;;;;;;7.57;6.88;;;;;;;;;;1746019;28;20260;-78
2023/12/14 10:11:17;;;;;;;7.10;6.50;;;;;;;;;;1742540;28;20290;-78
2023/12/14 10:12:08;;;;;;;6.95;6.38;;;;;;;;;;1742372;28;20203;-78
2023/12/14 10:13:00;;;;;;;6.20;5.70;;;;;;;;;;1742225;28;20200;-77
2023/12/14 10:13:52;;;;;;;7.20;6.50;;;;;;;;;;1741942;28;20452;-77
2023/12/14 10:14:43;;;;;;;6.63;6.03;;;;;;;;;;1742030;28;20269;-77
2023/12/14 10:15:41;;;;;;;7.65;5.70;;;;;;;;;;1741862;28;20242;-77
2023/12/14 10:16:34;;;;;;;8.60;6.55;;;;;;;;;;1735444;28;20214;-78
2023/12/14 10:17:31;;;;;;;6.90;6.30;;;;;;;;;;1735234;28;20408;-77
2023/12/14 10:18:23;;;;;;;6.65;6.00;;;;;;;;;;1742190;28;20231;-78
2023/12/14 10:19:16;;;;;;;7.90;6.07;;;;;;;;;;1742312;28;20364;-78
2023/12/14 10:20:09;;;;;;;6.57;5.85;;;;;;;;;;1742095;28;20660;-78
2023/12/14 10:21:01;;;;;;;7.75;6.95;;;;;;;;;;1741833;28;20194;-77
2023/12/14 10:21:52;;;;;;;6.97;5.95;;;;;;;;;;1741633;28;20709;-77
2023/12/14 10:22:44;;;;;;;6.93;6.03;;;;;;;;;;1743350;28;20256;-77
2023/12/14 10:23:37;;;;;;;6.32;5.82;;;;;;;;;;1745981;28;20204;-78
2023/12/14 10:24:29;;;;;;;7.07;6.40;;;;;;;;;;1741791;28;20203;-78
2023/12/14 10:25:21;;;;;;;6.70;6.10;;;;;;;;;;1747336;28;20195;-77
2023/12/14 10:26:12;;;;;;;7.43;6.78;;;;;;;;;;1735353;28;20212;-77
2023/12/14 10:27:07;;;;;;;6.88;6.22;;;;;;;;;;1734202;28;20276;-76
2023/12/14 10:27:59;;;;;;;10.85;6.80;;;;;;;;;;1735031;28;20676;-78
2023/12/14 10:28:52;;;;;;;20.75;17.42;;;;;;;;;;1734820;28;20239;-78
2023/12/14 10:29:44;;;;;;;16.63;14.80;;;;;;;;;;1741107;28;20203;-78
2023/12/14 10:30:35;;;;;;;28.38;25.08;;;;;;;;;;1741512;28;20214;-77
2023/12/14 10:31:28;;;;;;;21.65;19.55;;;;;;;;;;1742153;28;20214;-78
2023/12/14 10:32:20;;;;;;;40.80;36.35;;;;;;;;;;1741986;28;20663;-77
2023/12/14 10:33:14;;;;;;;26.08;23.48;;;;;;;;;;1741511;28;20195;-77
2023/12/14 10:34:05;;;;;;;7.78;7.05;;;;;;;;;;1741779;28;20211;-77
2023/12/14 10:34:57;;;;;;;6.38;5.88;;;;;;;;;;1741957;28;20572;-78
2023/12/14 10:35:48;;;;;;;6.10;5.47;;;;;;;;;;1741778;28;20218;-78
2023/12/14 10:36:40;;;;;;;6.43;5.82;;;;;;;;;;1741868;28;20227;-76
2023/12/14 10:37:33;;;;;;;6.03;5.53;;;;;;;;;;1741032;28;20210;-77
2023/12/14 10:38:26;;;;;;;9.07;6.30;;;;;;;;;;1741753;28;20199;-78
2023/12/14 10:39:18;;;;;;;6.07;5.57;;;;;;;;;;1741739;28;20231;-77
2023/12/14 10:40:12;;;;;;;8.00;5.80;;;;;;;;;;1741796;28;20294;-77
2023/12/14 10:41:04;;;;;;;5.70;5.20;;;;;;;;;;1741897;28;20290;-77
2023/12/14 10:41:56;;;;;;;6.13;5.47;;;;;;;;;;1742000;28;20207;-78
2023/12/14 10:42:48;;;;;;;8.05;5.28;;;;;;;;;;1742367;28;20562;-78
2023/12/14 10:43:41;;;;;;;6.43;5.75;;;;;;;;;;1741705;28;20195;-77
2023/12/14 10:44:35;;;;;;;6.68;6.05;;;;;;;;;;1741607;28;20214;-77
2023/12/14 10:45:29;;;;;;;6.22;5.30;;;;;;;;;;1741728;28;20207;-78
2023/12/14 10:46:21;;;;;;;6.60;6.00;;;;;;;;;;1741565;28;20687;-77
2023/12/14 10:47:14;;;;;;;5.20;4.70;;;;;;;;;;1745885;28;20197;-78
2023/12/14 10:48:06;;;;;;;5.40;4.90;;;;;;;;;;1748131;28;20202;-78
2023/12/14 10:48:57;;;;;;;5.38;4.88;;;;;;;;;;1741879;28;20211;-78
2023/12/14 10:49:50;;;;;;;7.80;5.30;;;;;;;;;;1741922;28;20254;-77
2023/12/14 10:50:44;;;;;;;5.78;5.25;;;;;;;;;;1741297;28;20706;-77
2023/12/14 10:51:37;;;;;;;5.72;4.82;;;;;;;;;;1741825;28;20664;-77
2023/12/14 10:52:29;;;;;;;5.78;4.85;;;;;;;;;;1741584;28;20194;-77
2023/12/14 10:53:21;;;;;;;5.85;4.50;;;;;;;;;;1741740;28;20682;-77
2023/12/14 10:54:13;;;;;;;5.78;5.20;;;;;;;;;;1741344;28;20766;-77
2023/12/14 10:55:06;;;;;;;11.00;9.40;;;;;;;;;;1741706;28;20211;-77
2023/12/14 10:56:00;;;;;;;7.03;6.25;;;;;;;;;;1741332;28;20612;-77
2023/12/14 10:56:56;;;;;;;5.30;4.78;;;;;;;;;;1743227;28;20262;-78
2023/12/14 10:57:47;;;;;;;5.57;4.90;;;;;;;;;;1735886;28;20253;-78
2023/12/14 10:58:49;;;;;;;5.35;4.85;;;;;;;;;;1740347;28;20192;-79
2023/12/14 10:59:42;;;;;;;5.38;4.65;;;;;;;;;;1742210;28;20210;-78
2023/12/14 11:00:34;;;;;;;6.18;5.55;;;;;;;;;;1742726;28;20261;-78
2023/12/14 11:01:26;;;;;;;4.85;4.40;;;;;;;;;;1742281;28;20198;-78
2023/12/14 11:02:17;;;;;;;7.97;5.72;;;;;;;;;;1744279;28;20188;-77
2023/12/14 11:03:14;;;;;;;6.90;6.25;;;;;;;;;;1740840;28;20183;-79
2023/12/14 11:04:06;;;;;;;5.65;5.15;;;;;;;;;;1745182;28;20214;-78
2023/12/14 11:04:59;;;;;;;6.50;5.90;;;;;;;;;;1745536;28;20286;-79
2023/12/14 11:05:51;;;;;;;6.13;5.53;;;;;;;;;;1743970;28;20694;-78
2023/12/14 11:06:46;;;;;;;6.78;6.00;;;;;;;;;;1740965;28;20664;-77
2023/12/14 11:07:47;;;;;;;5.60;5.10;;;;;;;;;;1744429;28;20191;-77
2023/12/14 11:08:39;;;;;;;5.00;4.60;;;;;;;;;;1741462;28;20195;-78
2023/12/14 11:09:31;;;;;;;5.93;5.18;;;;;;;;;;1742794;28;20667;-78
2023/12/14 11:10:23;;;;;;;5.15;4.65;;;;;;;;;;1741200;28;20199;-78
2023/12/14 11:11:20;;;;;;;6.53;5.53;;;;;;;;;;1740532;28;20223;-78
2023/12/14 11:12:12;;;;;;;5.30;4.90;;;;;;;;;;1741609;28;20249;-78
2023/12/14 11:13:04;;;;;;;6.70;6.00;;;;;;;;;;1741632;28;20226;-78